Time;durP1;ratioP1;P1;durP2;ratioP2;P2;SDS_P1;SDS_P2;PMS_P1;PMS_P2;Temp;Humidity;BMP_temperature;BMP_pressure;BME280_temperature;BME280_humidity;BME280_pressure;Samples;Min_cycle;Max_cycle;Signal;HPM_P1;HPM_P2
2021/01/09 00:00:17;;;;;;;7.90;4.50;;;-0.30;99.90;;;;;;4840451;29;20092;-67
2021/01/09 00:02:43;;;;;;;7.25;4.05;;;-0.20;99.90;;;;;;4866836;29;20064;-67
2021/01/09 00:05:11;;;;;;;6.22;4.25;;;-0.20;99.90;;;;;;4861722;29;20113;-67
2021/01/09 00:07:45;;;;;;;7.53;4.10;;;-0.20;99.90;;;;;;4863319;29;20136;-69
2021/01/09 00:10:11;;;;;;;6.47;4.18;;;-0.20;99.90;;;;;;4862386;29;20049;-67
2021/01/09 00:12:38;;;;;;;6.47;4.00;;;-0.20;99.90;;;;;;4839955;29;20045;-67
2021/01/09 00:15:06;;;;;;;5.78;4.05;;;-0.20;99.90;;;;;;4861635;29;20064;-68
2021/01/09 00:17:33;;;;;;;6.32;3.92;;;-0.20;99.90;;;;;;4863080;29;20570;-67
2021/01/09 00:19:59;;;;;;;7.28;4.18;;;-0.20;99.90;;;;;;4861459;29;20054;-67
2021/01/09 00:22:30;;;;;;;6.05;3.63;;;-0.30;99.90;;;;;;4858805;29;20057;-69
2021/01/09 00:24:56;;;;;;;6.65;4.10;;;-0.30;99.90;;;;;;4856057;29;20053;-67
2021/01/09 00:27:26;;;;;;;5.85;3.47;;;-0.30;99.90;;;;;;4861804;29;20060;-67
2021/01/09 00:29:52;;;;;;;5.40;3.88;;;-0.30;99.90;;;;;;4866819;29;20584;-67
2021/01/09 00:32:18;;;;;;;6.03;3.85;;;-0.40;99.90;;;;;;4866263;29;20049;-67
2021/01/09 00:34:45;;;;;;;7.80;4.47;;;-0.40;99.90;;;;;;4867915;29;20084;-67
2021/01/09 00:37:11;;;;;;;7.70;4.38;;;-0.40;99.90;;;;;;4862971;29;20137;-67
2021/01/09 00:39:38;;;;;;;6.18;3.65;;;-0.50;99.90;;;;;;4861188;29;20152;-67
2021/01/09 00:42:04;;;;;;;7.88;4.00;;;-0.50;99.90;;;;;;4865578;29;20109;-66
2021/01/09 00:44:33;;;;;;;6.00;3.65;;;-0.50;99.90;;;;;;4861108;29;20057;-67
2021/01/09 00:46:59;;;;;;;6.63;3.90;;;-0.50;99.90;;;;;;4863089;29;20168;-67
2021/01/09 00:49:26;;;;;;;5.28;3.53;;;-0.60;99.90;;;;;;4860867;29;20054;-67
2021/01/09 00:51:52;;;;;;;7.38;4.13;;;-0.60;99.90;;;;;;4867752;29;20053;-68
2021/01/09 00:54:18;;;;;;;7.82;4.90;;;-0.60;99.90;;;;;;4875565;29;20149;-68
2021/01/09 00:56:45;;;;;;;6.53;4.25;;;-0.60;99.90;;;;;;4880568;29;20052;-67
2021/01/09 00:59:11;;;;;;;6.50;4.30;;;-0.70;99.90;;;;;;4878639;29;20040;-67
2021/01/09 01:01:38;;;;;;;7.22;4.18;;;-0.70;99.90;;;;;;4879458;29;20081;-67
2021/01/09 01:04:04;;;;;;;8.90;4.20;;;-0.70;99.90;;;;;;4878656;29;20052;-66
2021/01/09 01:06:31;;;;;;;8.57;4.53;;;-0.70;99.90;;;;;;4880796;29;20063;-67
2021/01/09 01:08:57;;;;;;;7.95;4.40;;;-0.70;99.90;;;;;;4878642;29;20057;-67
2021/01/09 01:11:29;;;;;;;8.43;4.60;;;-0.70;99.90;;;;;;4870665;29;20048;-67
2021/01/09 01:13:57;;;;;;;6.00;3.95;;;-0.70;99.90;;;;;;4878210;29;20081;-67
2021/01/09 01:16:24;;;;;;;7.63;4.25;;;-0.70;99.90;;;;;;4881939;29;20045;-67
2021/01/09 01:18:51;;;;;;;6.95;4.05;;;-0.70;99.90;;;;;;4872614;29;20105;-66
2021/01/09 01:21:17;;;;;;;6.95;3.92;;;-0.70;99.90;;;;;;4882184;29;20404;-68
2021/01/09 01:23:44;;;;;;;5.75;3.45;;;-0.70;99.90;;;;;;4878464;29;20112;-68
2021/01/09 01:26:11;;;;;;;7.55;4.07;;;-0.70;99.90;;;;;;4880640;29;20048;-67
2021/01/09 01:28:43;;;;;;;5.65;2.90;;;-0.70;99.90;;;;;;4878834;29;20504;-67
2021/01/09 01:31:09;;;;;;;5.93;3.53;;;-0.70;99.90;;;;;;4878631;29;20500;-67
2021/01/09 01:33:40;;;;;;;6.22;3.72;;;-0.70;99.90;;;;;;4878855;29;20522;-66
2021/01/09 01:36:10;;;;;;;6.65;3.63;;;-0.70;99.90;;;;;;4873772;29;20081;-67
2021/01/09 01:38:39;;;;;;;5.78;3.90;;;-0.80;99.90;;;;;;4879512;29;20412;-66
2021/01/09 01:41:06;;;;;;;6.60;3.85;;;-0.70;99.90;;;;;;4877568;29;20053;-67
2021/01/09 01:43:33;;;;;;;6.68;3.83;;;-0.80;99.90;;;;;;4878788;29;20051;-68
2021/01/09 01:46:02;;;;;;;5.53;3.72;;;-0.80;99.90;;;;;;4878142;29;20041;-67
2021/01/09 01:48:29;;;;;;;7.68;4.18;;;-0.80;99.90;;;;;;4883831;29;20097;-67
2021/01/09 01:50:56;;;;;;;6.57;3.70;;;-0.80;99.90;;;;;;4883230;29;20163;-67
2021/01/09 01:53:23;;;;;;;5.35;3.50;;;-0.80;99.90;;;;;;4877339;29;20052;-67
2021/01/09 01:55:49;;;;;;;5.85;4.18;;;-0.80;99.90;;;;;;4875360;29;20140;-66
2021/01/09 01:58:16;;;;;;;5.95;3.50;;;-0.80;99.90;;;;;;4878297;29;20045;-66
2021/01/09 02:00:49;;;;;;;6.57;3.83;;;-0.80;99.90;;;;;;4875348;29;20053;-68
2021/01/09 02:03:18;;;;;;;6.25;3.47;;;-0.80;99.90;;;;;;4873613;29;20109;-67
2021/01/09 02:06:07;;;;;;;5.85;3.58;;;-0.80;99.90;;;;;;4878206;29;20055;-67
2021/01/09 02:08:39;;;;;;;6.65;3.78;;;-0.90;99.90;;;;;;4878526;29;20057;-67
2021/01/09 02:11:16;;;;;;;8.73;3.50;;;-0.90;99.90;;;;;;4874499;29;20163;-67
2021/01/09 02:14:04;;;;;;;5.50;3.35;;;-0.90;99.90;;;;;;4876943;29;20408;-66
2021/01/09 02:16:32;;;;;;;4.55;3.03;;;-0.90;99.90;;;;;;4876594;29;20092;-68
2021/01/09 02:19:00;;;;;;;6.72;3.90;;;-0.90;99.90;;;;;;4875037;29;20085;-67
2021/01/09 02:21:40;;;;;;;5.93;3.42;;;-0.90;99.90;;;;;;4878548;29;20057;-67
2021/01/09 02:24:13;;;;;;;5.80;3.65;;;-1.00;99.90;;;;;;4860820;29;20045;-67
2021/01/09 02:26:43;;;;;;;5.80;3.30;;;-1.00;99.90;;;;;;4878294;29;20433;-67
2021/01/09 02:29:11;;;;;;;7.03;3.90;;;-1.00;99.90;;;;;;4877367;29;20057;-67
2021/01/09 02:31:47;;;;;;;7.05;3.25;;;-1.00;99.90;;;;;;4858545;29;20041;-66
2021/01/09 02:34:14;;;;;;;7.13;3.78;;;-1.00;99.90;;;;;;4872737;29;20504;-68
2021/01/09 02:36:41;;;;;;;5.70;3.42;;;-1.00;99.90;;;;;;4879494;29;20056;-67
2021/01/09 02:39:08;;;;;;;6.15;3.33;;;-1.00;99.90;;;;;;4875721;29;20053;-68
2021/01/09 02:41:35;;;;;;;7.70;3.70;;;-1.00;99.90;;;;;;4881424;29;20084;-68
2021/01/09 02:44:10;;;;;;;5.05;3.33;;;-1.00;99.90;;;;;;4877712;29;20053;-68
2021/01/09 02:46:39;;;;;;;5.50;3.25;;;-1.00;99.90;;;;;;4879485;29;20056;-67
2021/01/09 02:49:06;;;;;;;6.20;3.13;;;-1.00;99.90;;;;;;4880750;29;20117;-68
2021/01/09 02:51:33;;;;;;;5.35;3.38;;;-1.10;99.90;;;;;;4877335;29;20208;-67
2021/01/09 02:53:59;;;;;;;4.78;3.03;;;-1.10;99.90;;;;;;4858498;29;20441;-66
2021/01/09 02:56:25;;;;;;;6.32;3.95;;;-1.10;99.90;;;;;;4879463;29;20128;-66
2021/01/09 02:58:52;;;;;;;7.63;3.97;;;-1.10;99.90;;;;;;4875926;29;20136;-67
2021/01/09 03:01:18;;;;;;;6.40;3.28;;;-1.10;99.90;;;;;;4870018;29;20053;-67
2021/01/09 03:03:44;;;;;;;5.22;3.10;;;-1.10;99.90;;;;;;4877884;29;20054;-67
2021/01/09 03:06:11;;;;;;;5.95;3.50;;;-1.20;99.90;;;;;;4862866;29;20056;-67
2021/01/09 03:08:37;;;;;;;5.93;3.25;;;-1.20;99.90;;;;;;4877788;29;20132;-66
2021/01/09 03:11:03;;;;;;;5.53;2.90;;;-1.20;99.90;;;;;;4875265;29;20088;-66
2021/01/09 03:13:34;;;;;;;4.50;2.90;;;-1.20;99.90;;;;;;4878091;29;20073;-71
2021/01/09 03:16:01;;;;;;;5.88;2.83;;;-1.20;99.90;;;;;;4878103;29;20068;-67
2021/01/09 03:18:28;;;;;;;4.85;3.05;;;-1.20;99.90;;;;;;4885832;29;20139;-68
2021/01/09 03:20:54;;;;;;;5.63;3.03;;;-1.20;99.90;;;;;;4878224;29;20048;-67
2021/01/09 03:23:20;;;;;;;5.47;3.00;;;-1.20;99.90;;;;;;4883428;29;20063;-68
2021/01/09 03:25:46;;;;;;;7.05;3.13;;;-1.20;99.90;;;;;;4879210;29;20095;-67
2021/01/09 03:28:13;;;;;;;5.70;3.03;;;-1.20;99.90;;;;;;4882384;29;20053;-67
2021/01/09 03:30:39;;;;;;;6.32;3.67;;;-1.30;99.90;;;;;;4863185;29;20079;-66
2021/01/09 03:33:05;;;;;;;4.57;3.10;;;-1.30;99.90;;;;;;4882700;29;20481;-67
2021/01/09 03:35:31;;;;;;;5.30;3.30;;;-1.30;99.90;;;;;;4876573;29;20045;-66
2021/01/09 03:37:58;;;;;;;5.10;3.30;;;-1.30;99.90;;;;;;4881046;29;20451;-66
2021/01/09 03:40:25;;;;;;;4.75;2.97;;;-1.30;99.90;;;;;;4879538;29;20087;-67
2021/01/09 03:42:51;;;;;;;6.68;3.72;;;-1.30;99.90;;;;;;4876976;29;20145;-67
2021/01/09 03:45:20;;;;;;;7.55;3.05;;;-1.30;99.90;;;;;;4880821;29;20145;-67
2021/01/09 03:47:46;;;;;;;6.05;3.40;;;-1.40;99.90;;;;;;4882176;29;20419;-67
2021/01/09 03:50:12;;;;;;;5.25;3.40;;;-1.40;99.90;;;;;;4860694;29;20137;-67
2021/01/09 03:52:39;;;;;;;4.72;3.25;;;-1.40;99.90;;;;;;4880355;29;20481;-66
2021/01/09 03:55:05;;;;;;;5.10;2.92;;;-1.40;99.90;;;;;;4879026;29;20053;-68
2021/01/09 03:57:32;;;;;;;4.75;2.75;;;-1.40;99.90;;;;;;4882252;29;20043;-68
2021/01/09 03:59:58;;;;;;;7.57;3.35;;;-1.40;99.90;;;;;;4879660;29;20084;-67
2021/01/09 04:02:24;;;;;;;6.13;3.38;;;-1.40;99.90;;;;;;4876290;29;20120;-68
2021/01/09 04:04:50;;;;;;;4.97;3.13;;;-1.40;99.90;;;;;;4879560;29;20045;-67
2021/01/09 04:07:17;;;;;;;6.22;2.95;;;-1.40;99.90;;;;;;4881665;29;20080;-66
2021/01/09 04:09:43;;;;;;;6.03;3.28;;;-1.40;99.90;;;;;;4878049;29;20527;-66
2021/01/09 04:12:09;;;;;;;4.00;2.78;;;-1.40;99.90;;;;;;4876703;29;20144;-66
2021/01/09 04:14:36;;;;;;;5.13;3.72;;;-1.50;99.90;;;;;;4876128;29;20048;-67
2021/01/09 04:17:02;;;;;;;5.95;3.67;;;-1.50;99.90;;;;;;4875699;29;20049;-66
2021/01/09 04:19:28;;;;;;;4.68;3.50;;;-1.50;99.90;;;;;;4872957;29;20049;-67
2021/01/09 04:21:55;;;;;;;5.03;3.60;;;-1.50;99.90;;;;;;4860442;29;20181;-67
2021/01/09 04:24:25;;;;;;;3.50;2.65;;;-1.50;99.90;;;;;;4877449;29;20128;-68
2021/01/09 04:26:53;;;;;;;4.95;3.03;;;-1.50;99.90;;;;;;4878560;29;20529;-66
2021/01/09 04:29:19;;;;;;;5.38;3.08;;;-1.50;99.90;;;;;;4872300;29;20051;-68
2021/01/09 05:25:45;;;;;;;3.30;2.00;;;-1.80;99.90;;;;;;4897679;29;20135;-68
2021/01/09 06:45:36;;;;;;;4.07;1.95;;;-1.80;99.90;;;;;;4820603;29;20069;-69
2021/01/09 06:48:05;;;;;;;3.28;2.20;;;-1.80;99.90;;;;;;4856715;29;20052;-68
2021/01/09 06:50:33;;;;;;;5.65;2.40;;;-1.80;99.90;;;;;;4881452;24;20469;-67
2021/01/09 06:53:01;;;;;;;4.28;2.13;;;-1.80;99.90;;;;;;4869397;29;20045;-68
2021/01/09 06:55:36;;;;;;;2.97;1.95;;;-1.80;99.90;;;;;;4866073;29;20454;-68
2021/01/09 06:58:04;;;;;;;4.32;2.15;;;-1.80;99.90;;;;;;4871475;29;20101;-68
2021/01/09 07:00:31;;;;;;;3.17;2.25;;;-1.80;99.90;;;;;;4877708;29;20059;-68
2021/01/09 07:03:13;;;;;;;4.78;2.42;;;-1.80;99.90;;;;;;4865350;29;20600;-68
2021/01/09 07:05:52;;;;;;;3.85;2.55;;;-1.80;99.90;;;;;;4878313;29;20177;-68
2021/01/09 07:08:26;;;;;;;4.43;2.55;;;-1.80;99.90;;;;;;4874569;29;20165;-68
2021/01/09 07:10:57;;;;;;;4.32;2.50;;;-1.80;99.90;;;;;;4879502;29;20071;-69
2021/01/09 07:13:25;;;;;;;4.57;2.50;;;-1.80;99.90;;;;;;4877597;29;20646;-68
2021/01/09 07:16:12;;;;;;;4.28;2.60;;;-1.80;99.90;;;;;;4873990;29;20049;-68
2021/01/09 07:18:59;;;;;;;3.78;2.55;;;-1.80;99.90;;;;;;4875040;29;20496;-68
2021/01/09 07:21:25;;;;;;;3.58;2.63;;;-1.90;99.90;;;;;;4877343;29;20526;-68
2021/01/09 07:23:53;;;;;;;4.10;3.10;;;-1.90;99.90;;;;;;4873714;29;20124;-68
2021/01/09 07:26:25;;;;;;;6.47;3.10;;;-1.90;99.90;;;;;;4877145;29;20053;-70
2021/01/09 07:28:52;;;;;;;3.83;2.40;;;-1.90;99.90;;;;;;4876808;29;20040;-68
2021/01/09 07:31:23;;;;;;;3.55;2.75;;;-1.90;99.90;;;;;;4871996;29;20056;-68
2021/01/09 07:33:56;;;;;;;4.43;2.80;;;-1.90;99.90;;;;;;4879705;29;20049;-68
2021/01/09 07:36:28;;;;;;;4.05;2.55;;;-1.90;99.90;;;;;;4870869;29;20552;-68
2021/01/09 07:39:04;;;;;;;4.68;2.55;;;-1.90;99.90;;;;;;4873535;29;20055;-68
2021/01/09 07:41:35;;;;;;;4.47;2.85;;;-1.90;99.90;;;;;;4856694;29;20441;-68
2021/01/09 07:44:21;;;;;;;4.28;2.70;;;-1.90;99.90;;;;;;4869702;29;20100;-68
2021/01/09 07:47:00;;;;;;;4.47;2.75;;;-1.90;99.90;;;;;;4856221;29;20051;-68
2021/01/09 07:49:32;;;;;;;4.13;2.67;;;-1.90;99.90;;;;;;4878353;29;20099;-68
2021/01/09 07:51:59;;;;;;;4.28;2.60;;;-2.00;99.90;;;;;;4876075;29;20052;-68
2021/01/09 07:54:38;;;;;;;5.45;3.22;;;-1.90;99.90;;;;;;4869701;29;20133;-68
2021/01/09 07:57:19;;;;;;;3.58;2.58;;;-1.90;99.90;;;;;;4874590;29;20350;-68
2021/01/09 07:59:54;;;;;;;4.75;3.22;;;-1.90;99.90;;;;;;4879355;29;20058;-67
2021/01/09 08:02:37;;;;;;;4.95;3.65;;;-1.90;99.90;;;;;;4876090;29;20080;-67
2021/01/09 08:05:13;;;;;;;4.72;2.72;;;-1.90;99.90;;;;;;4869974;29;20053;-68
2021/01/09 08:07:45;;;;;;;4.13;2.65;;;-1.90;99.90;;;;;;4867229;29;20151;-68
2021/01/09 08:10:12;;;;;;;5.80;3.25;;;-1.90;99.90;;;;;;4875588;29;20139;-68
2021/01/09 08:12:39;;;;;;;4.32;2.83;;;-1.90;99.90;;;;;;4862812;29;20571;-67
2021/01/09 08:15:08;;;;;;;4.30;2.45;;;-1.90;99.90;;;;;;4874740;29;20378;-68
2021/01/09 08:17:34;;;;;;;3.42;2.28;;;-1.90;99.90;;;;;;4868673;29;20148;-68
2021/01/09 08:20:08;;;;;;;4.18;2.47;;;-1.90;99.90;;;;;;4876957;29;20053;-68
2021/01/09 08:22:36;;;;;;;5.65;2.85;;;-1.80;99.90;;;;;;4874542;29;20053;-67
2021/01/09 08:25:12;;;;;;;3.88;2.22;;;-1.80;99.90;;;;;;4874586;29;20553;-69
2021/01/09 08:27:42;;;;;;;4.53;2.85;;;-1.80;99.90;;;;;;4872012;29;20132;-67
2021/01/09 08:30:12;;;;;;;5.10;2.58;;;-1.70;99.90;;;;;;4875225;29;20057;-68
2021/01/09 08:32:39;;;;;;;4.28;2.58;;;-1.70;99.90;;;;;;4879914;29;20494;-68
2021/01/09 08:35:07;;;;;;;5.00;2.65;;;-1.60;99.90;;;;;;4880479;29;20057;-68
2021/01/09 08:37:34;;;;;;;4.15;2.95;;;-1.60;99.90;;;;;;4867394;29;20064;-68
2021/01/09 08:40:31;;;;;;;3.90;2.60;;;-1.50;99.90;;;;;;4873872;29;20081;-68
2021/01/09 08:43:08;;;;;;;5.45;3.42;;;-1.50;99.90;;;;;;4846325;29;20110;-68
2021/01/09 08:45:51;;;;;;;4.38;2.67;;;-1.40;99.90;;;;;;4877423;29;20053;-68
2021/01/09 08:48:45;;;;;;;5.25;3.20;;;-1.40;99.90;;;;;;4873479;29;20588;-68
2021/01/09 08:51:18;;;;;;;5.50;3.25;;;-1.40;99.90;;;;;;4873744;29;20412;-67
2021/01/09 08:53:54;;;;;;;3.70;2.90;;;-1.30;99.90;;;;;;4879406;29;20052;-68
2021/01/09 08:56:24;;;;;;;4.57;3.15;;;-1.30;99.90;;;;;;4870987;29;20136;-68
2021/01/09 08:58:52;;;;;;;4.82;2.90;;;-1.30;99.90;;;;;;4871856;29;20053;-68
2021/01/09 09:01:24;;;;;;;5.55;2.88;;;-1.20;99.90;;;;;;4874717;29;20067;-68
2021/01/09 09:47:08;;;;;;;4.00;2.00;;;0.30;99.90;;;;;;4881405;29;20123;-68
2021/01/09 09:49:37;;;;;;;3.83;2.00;;;0.40;99.90;;;;;;4882211;29;20057;-68
2021/01/09 09:52:24;;;;;;;3.90;2.00;;;0.40;99.90;;;;;;4892886;29;20059;-68
2021/01/09 09:54:59;;;;;;;;;;;0.50;99.90;;;;;;4873228;29;20049;-68
2021/01/09 09:57:26;;;;;;;3.20;1.90;;;0.50;99.90;;;;;;4884880;29;20384;-68
2021/01/09 10:00:04;;;;;;;3.58;2.30;;;0.60;99.90;;;;;;4891421;29;20057;-67
2021/01/09 10:02:30;;;;;;;3.65;2.08;;;0.60;99.90;;;;;;4888019;29;20534;-68
2021/01/09 10:04:56;;;;;;;3.60;2.33;;;0.70;99.90;;;;;;4887721;29;20425;-68
2021/01/09 10:07:23;;;;;;;5.10;3.10;;;0.80;99.90;;;;;;4887784;29;20081;-68
2021/01/09 10:09:50;;;;;;;6.80;2.67;;;0.90;99.90;;;;;;4886918;29;20049;-68
2021/01/09 10:12:16;;;;;;;3.30;2.22;;;0.90;99.90;;;;;;4882452;29;20045;-68
2021/01/09 10:14:43;;;;;;;4.50;2.70;;;1.00;99.90;;;;;;4892425;29;20049;-67
2021/01/09 10:17:15;;;;;;;5.70;2.55;;;1.10;99.90;;;;;;4884882;29;20052;-68
2021/01/09 10:19:41;;;;;;;5.88;2.97;;;1.20;99.90;;;;;;4887789;29;20056;-68
2021/01/09 10:22:08;;;;;;;4.10;2.88;;;1.20;99.90;;;;;;4886101;29;20171;-67
2021/01/09 10:24:35;;;;;;;4.90;2.75;;;1.20;99.90;;;;;;4892079;29;20068;-67
2021/01/09 10:27:02;;;;;;;5.13;3.00;;;1.30;99.90;;;;;;4896455;29;20135;-68
2021/01/09 10:29:28;;;;;;;4.55;2.95;;;1.30;99.90;;;;;;4886804;29;20053;-67
2021/01/09 10:31:55;;;;;;;4.78;2.88;;;1.30;99.90;;;;;;4869456;29;20052;-67
2021/01/09 10:34:22;;;;;;;4.53;2.95;;;1.40;99.90;;;;;;4886992;29;20104;-68
2021/01/09 10:36:48;;;;;;;4.00;2.67;;;1.40;99.90;;;;;;4884709;29;20129;-67
2021/01/09 10:39:14;;;;;;;6.20;2.80;;;1.50;99.90;;;;;;4892195;29;20135;-67
2021/01/09 10:41:43;;;;;;;4.75;3.20;;;1.50;99.90;;;;;;4890325;29;20045;-68
2021/01/09 10:44:09;;;;;;;8.82;4.32;;;1.60;99.90;;;;;;4894616;29;20143;-68
2021/01/09 10:46:36;;;;;;;6.40;4.82;;;1.90;99.90;;;;;;4887585;29;20075;-68
2021/01/09 10:49:02;;;;;;;8.60;4.25;;;2.40;99.90;;;;;;4891856;29;20058;-68
2021/01/09 10:51:32;;;;;;;7.43;4.57;;;3.00;99.90;;;;;;4886092;29;20083;-68
2021/01/09 10:54:01;;;;;;;7.22;4.60;;;3.70;99.90;;;;;;4884346;29;20059;-68
2021/01/09 10:56:28;;;;;;;8.38;4.45;;;4.40;99.90;;;;;;4883875;29;20559;-68
2021/01/09 10:58:56;;;;;;;7.40;4.93;;;5.10;99.90;;;;;;4887326;29;20084;-69
2021/01/09 11:01:23;;;;;;;7.70;4.88;;;5.70;99.90;;;;;;4881730;29;20445;-68
2021/01/09 11:03:50;;;;;;;7.75;4.68;;;6.30;99.90;;;;;;4889383;29;20454;-68
2021/01/09 11:06:21;;;;;;;7.00;4.18;;;6.90;99.90;;;;;;4885081;29;20099;-68
2021/01/09 11:08:48;;;;;;;6.93;4.22;;;7.30;99.90;;;;;;4881605;29;20106;-67
2021/01/09 11:11:14;;;;;;;7.32;4.50;;;7.80;99.90;;;;;;4885789;29;20132;-67
2021/01/09 11:13:41;;;;;;;7.32;4.80;;;8.10;99.90;;;;;;4887749;29;20049;-67
2021/01/09 11:16:07;;;;;;;7.43;4.47;;;8.50;99.90;;;;;;4888061;29;20167;-68
2021/01/09 11:18:36;;;;;;;8.10;4.47;;;8.80;99.90;;;;;;4891447;29;20394;-68
2021/01/09 11:21:02;;;;;;;6.13;4.50;;;9.10;99.90;;;;;;4879976;29;20055;-68
2021/01/09 11:23:29;;;;;;;6.95;4.53;;;9.40;99.90;;;;;;4885216;29;20111;-68
2021/01/09 11:25:55;;;;;;;5.63;3.97;;;9.70;99.90;;;;;;4883742;29;20423;-67
2021/01/09 11:28:21;;;;;;;5.70;3.67;;;9.90;99.90;;;;;;4885715;29;20136;-68
2021/01/09 11:30:47;;;;;;;5.13;3.88;;;10.10;99.90;;;;;;4881184;29;20045;-68
2021/01/09 11:33:13;;;;;;;7.97;4.00;;;10.20;99.90;;;;;;4888971;29;20041;-68
2021/01/09 11:35:40;;;;;;;5.78;3.55;;;10.40;99.90;;;;;;4888205;29;20508;-68
2021/01/09 11:38:21;;;;;;;7.25;4.10;;;10.60;99.90;;;;;;4881950;29;20056;-67
2021/01/09 11:40:50;;;;;;;6.90;4.45;;;10.80;99.90;;;;;;4889960;29;20045;-67
2021/01/09 11:43:17;;;;;;;6.03;4.35;;;11.00;99.90;;;;;;4880191;29;20140;-68
2021/01/09 11:45:43;;;;;;;7.65;4.18;;;11.30;99.90;;;;;;4893980;29;20053;-67
2021/01/09 11:48:16;;;;;;;5.80;3.97;;;11.60;99.90;;;;;;4886816;29;20049;-70
2021/01/09 11:50:43;;;;;;;5.35;4.10;;;12.00;99.90;;;;;;4896127;29;20160;-67
2021/01/09 11:53:18;;;;;;;6.93;4.28;;;12.20;99.90;;;;;;4893023;29;20048;-69
2021/01/09 11:55:45;;;;;;;6.65;3.78;;;12.20;99.90;;;;;;4894201;29;20079;-68
2021/01/09 11:58:11;;;;;;;8.25;3.83;;;11.90;99.90;;;;;;4890709;29;20045;-68
2021/01/09 12:00:37;;;;;;;7.93;4.30;;;11.80;99.90;;;;;;4889416;29;20080;-68
2021/01/09 12:03:04;;;;;;;6.85;4.13;;;11.80;99.90;;;;;;4890504;29;20148;-68
2021/01/09 12:05:30;;;;;;;6.88;4.35;;;12.00;99.90;;;;;;4888556;29;20452;-67
2021/01/09 12:07:57;;;;;;;7.45;4.80;;;12.20;99.90;;;;;;4885624;29;20049;-67
2021/01/09 12:10:24;;;;;;;8.10;4.90;;;12.40;99.90;;;;;;4894535;29;20048;-67
2021/01/09 12:12:50;;;;;;;6.72;4.63;;;12.60;99.90;;;;;;4883292;29;20049;-68
2021/01/09 12:15:16;;;;;;;8.23;5.15;;;12.70;99.90;;;;;;4886444;29;20059;-68
2021/01/09 12:17:43;;;;;;;7.15;4.68;;;12.90;99.90;;;;;;4887130;29;20059;-67
2021/01/09 12:20:17;;;;;;;8.88;4.70;;;13.10;99.90;;;;;;4892718;29;20827;-68
2021/01/09 12:22:43;;;;;;;6.70;4.13;;;13.10;99.90;;;;;;4885862;29;20107;-70
2021/01/09 12:25:10;;;;;;;7.18;4.35;;;12.90;99.90;;;;;;4894147;29;20044;-70
2021/01/09 12:27:36;;;;;;;8.13;4.40;;;12.80;99.90;;;;;;4891392;29;20502;-70
2021/01/09 12:30:04;;;;;;;5.97;4.00;;;12.60;99.90;;;;;;4890466;29;20044;-69
2021/01/09 12:32:37;;;;;;;8.68;3.92;;;12.40;99.90;;;;;;4887473;29;20097;-69
2021/01/09 12:35:06;;;;;;;5.60;3.08;;;12.20;99.90;;;;;;4895021;29;20049;-70
2021/01/09 12:37:33;;;;;;;5.30;2.65;;;12.00;99.90;;;;;;4889463;29;20059;-70
2021/01/09 12:40:00;;;;;;;6.28;2.90;;;11.60;99.90;;;;;;4889192;29;20060;-70
2021/01/09 12:42:28;;;;;;;7.15;2.50;;;11.20;99.90;;;;;;4882272;29;20057;-69
2021/01/09 12:44:54;;;;;;;6.43;2.75;;;10.70;99.90;;;;;;4885987;29;20056;-69
2021/01/09 12:47:20;;;;;;;4.28;1.90;;;10.30;99.90;;;;;;4877601;29;20044;-70
2021/01/09 12:49:47;;;;;;;6.47;2.20;;;9.90;99.90;;;;;;4879521;29;20504;-70
2021/01/09 12:52:18;;;;;;;6.67;2.30;;;9.70;99.90;;;;;;4880925;29;20076;-70
2021/01/09 12:54:45;;;;;;;4.78;1.58;;;9.50;99.90;;;;;;4881326;29;20044;-70
2021/01/09 12:57:11;;;;;;;5.78;1.80;;;9.50;99.90;;;;;;4880894;29;20044;-70
2021/01/09 12:59:38;;;;;;;7.90;2.15;;;9.80;99.90;;;;;;4881009;29;20071;-67
2021/01/09 13:02:04;;;;;;;4.57;1.50;;;10.30;99.90;;;;;;4882849;29;20174;-67
2021/01/09 13:04:30;;;;;;;3.53;1.60;;;10.90;99.90;;;;;;4881472;29;20069;-67
2021/01/09 13:06:58;;;;;;;3.60;1.75;;;11.40;99.90;;;;;;4880103;29;20412;-67
2021/01/09 13:09:26;;;;;;;3.78;1.45;;;11.90;99.90;;;;;;4881374;29;20475;-67
2021/01/09 13:11:56;;;;;;;4.25;1.67;;;12.50;99.90;;;;;;4880332;29;20114;-67
2021/01/09 13:14:22;;;;;;;4.57;1.42;;;12.80;99.90;;;;;;4866396;29;20139;-67
2021/01/09 13:16:51;;;;;;;3.45;1.50;;;13.00;99.90;;;;;;4883308;29;20048;-67
2021/01/09 13:19:19;;;;;;;6.82;1.60;;;13.40;99.90;;;;;;4878950;29;20457;-67
2021/01/09 13:21:57;;;;;;;3.30;1.58;;;13.80;99.90;;;;;;4881202;29;20076;-68
2021/01/09 13:24:25;;;;;;;4.75;1.30;;;14.30;99.90;;;;;;4881504;29;20564;-67
2021/01/09 13:26:52;;;;;;;3.78;1.20;;;14.80;99.90;;;;;;4880597;29;20128;-67
2021/01/09 13:29:19;;;;;;;1.95;1.10;;;14.90;99.90;;;;;;4881736;29;20500;-67
2021/01/09 13:31:45;;;;;;;3.85;1.60;;;14.60;99.90;;;;;;4880188;29;20152;-67
2021/01/09 13:34:15;;;;;;;4.97;1.73;;;14.00;99.90;;;;;;4881867;29;20393;-67
2021/01/09 13:36:43;;;;;;;4.50;1.85;;;13.40;99.90;;;;;;4878719;29;20057;-68
2021/01/09 13:39:11;;;;;;;3.90;1.27;;;12.80;99.90;;;;;;4876216;29;20135;-67
2021/01/09 13:41:38;;;;;;;4.25;1.40;;;12.30;99.90;;;;;;4878483;29;20057;-68
2021/01/09 13:44:05;;;;;;;3.78;1.00;;;11.80;99.90;;;;;;4877181;29;20578;-67
2021/01/09 13:46:31;;;;;;;3.83;1.48;;;11.40;99.90;;;;;;4880331;29;20432;-68
2021/01/09 13:49:02;;;;;;;4.47;1.17;;;11.10;99.90;;;;;;4878628;29;20056;-67
2021/01/09 13:51:31;;;;;;;5.72;1.40;;;10.70;99.90;;;;;;4878255;29;20052;-68
2021/01/09 13:53:57;;;;;;;5.00;1.20;;;10.40;99.90;;;;;;4880986;29;20070;-68
2021/01/09 13:56:37;;;;;;;5.63;1.73;;;10.20;99.90;;;;;;4863737;29;20122;-68
2021/01/09 13:59:05;;;;;;;4.13;1.27;;;10.10;99.90;;;;;;4877269;29;20053;-67
2021/01/09 14:01:32;;;;;;;4.55;1.30;;;10.00;99.90;;;;;;4880198;29;20063;-67
2021/01/09 14:03:59;;;;;;;3.42;1.27;;;9.80;99.90;;;;;;4879545;29;20420;-68
2021/01/09 14:06:25;;;;;;;3.42;1.10;;;9.80;99.90;;;;;;4878723;29;20055;-67
2021/01/09 14:08:51;;;;;;;4.03;1.17;;;9.70;99.90;;;;;;4877002;29;20100;-67
2021/01/09 14:11:22;;;;;;;5.72;1.38;;;9.60;99.90;;;;;;4879583;29;20100;-67
2021/01/09 14:13:50;;;;;;;2.17;1.05;;;9.50;99.90;;;;;;4880681;29;20139;-68
2021/01/09 14:16:37;;;;;;;6.28;1.10;;;9.50;99.90;;;;;;4879928;29;20056;-67
2021/01/09 14:19:06;;;;;;;3.90;0.95;;;9.50;99.90;;;;;;4881314;29;20503;-68
2021/01/09 14:21:34;;;;;;;5.03;1.38;;;9.40;99.90;;;;;;4880011;29;20139;-69
2021/01/09 14:24:01;;;;;;;3.17;1.17;;;9.40;99.90;;;;;;4879373;29;20061;-67
2021/01/09 14:26:32;;;;;;;6.22;1.08;;;9.30;99.90;;;;;;4879858;29;20412;-68
2021/01/09 14:29:00;;;;;;;3.40;1.17;;;9.20;99.90;;;;;;4880089;29;20479;-67
2021/01/09 14:31:34;;;;;;;3.33;1.00;;;9.10;99.90;;;;;;4882903;29;20049;-68
2021/01/09 14:34:02;;;;;;;3.03;1.23;;;9.10;99.90;;;;;;4881285;29;20053;-67
2021/01/09 14:36:36;;;;;;;4.72;1.33;;;9.10;99.90;;;;;;4881702;29;20057;-70
2021/01/09 14:39:04;;;;;;;3.35;1.30;;;9.00;99.90;;;;;;4877591;29;20088;-70
2021/01/09 14:41:30;;;;;;;6.13;1.58;;;8.90;99.90;;;;;;4879841;29;20081;-70
2021/01/09 14:43:57;;;;;;;5.32;1.60;;;8.90;99.90;;;;;;4879839;29;20104;-69
2021/01/09 14:46:23;;;;;;;3.88;1.63;;;8.90;99.90;;;;;;4881551;29;20040;-70
2021/01/09 14:48:51;;;;;;;5.20;1.60;;;8.90;99.90;;;;;;4880598;29;20484;-70
2021/01/09 14:51:25;;;;;;;3.63;1.60;;;9.00;99.90;;;;;;4865065;29;20084;-69
2021/01/09 14:53:52;;;;;;;4.78;2.05;;;9.10;99.90;;;;;;4878191;29;20057;-70
2021/01/09 14:56:21;;;;;;;4.38;1.67;;;9.30;99.90;;;;;;4879811;29;20413;-70
2021/01/09 14:58:49;;;;;;;4.63;2.17;;;9.60;99.90;;;;;;4877200;29;20049;-69
2021/01/09 15:01:35;;;;;;;6.13;1.55;;;10.10;99.90;;;;;;4871419;29;20060;-70
2021/01/09 15:04:02;;;;;;;4.63;1.20;;;10.50;99.90;;;;;;4877688;29;20115;-70
2021/01/09 15:06:29;;;;;;;2.20;0.88;;;11.00;99.90;;;;;;4880294;29;20052;-70
2021/01/09 15:08:55;;;;;;;1.95;0.70;;;11.40;99.90;;;;;;4876901;29;20573;-70
2021/01/09 15:11:22;;;;;;;3.92;0.95;;;11.70;99.90;;;;;;4861687;29;20063;-68
2021/01/09 15:13:48;;;;;;;3.15;0.95;;;11.70;99.90;;;;;;4877123;29;20105;-67
2021/01/09 15:16:17;;;;;;;4.90;1.20;;;11.60;99.90;;;;;;4880052;29;20176;-67
2021/01/09 15:19:12;;;;;;;2.22;1.00;;;11.40;99.90;;;;;;4881068;29;20386;-67
2021/01/09 15:21:39;;;;;;;3.67;1.52;;;11.10;99.90;;;;;;4881927;29;20172;-67
2021/01/09 15:24:06;;;;;;;2.33;1.02;;;10.70;99.90;;;;;;4864935;29;20060;-67
2021/01/09 15:26:33;;;;;;;2.63;0.95;;;10.30;99.90;;;;;;4883484;29;20056;-67
2021/01/09 15:29:02;;;;;;;4.22;1.02;;;9.90;99.90;;;;;;4880623;29;20060;-68
2021/01/09 15:31:28;;;;;;;4.45;1.02;;;9.60;99.90;;;;;;4881955;29;20057;-68
2021/01/09 15:33:55;;;;;;;3.22;1.10;;;9.20;99.90;;;;;;4881094;29;20376;-68
2021/01/09 15:36:42;;;;;;;;;;;8.90;99.90;;;;;;4881412;29;20362;-66
2021/01/09 15:39:23;;;;;;;4.13;1.15;;;8.60;99.90;;;;;;4884089;29;19992;-67
2021/01/09 15:41:57;;;;;;;4.07;1.05;;;8.40;99.90;;;;;;4882422;29;20056;-67
2021/01/09 15:44:25;;;;;;;2.47;0.90;;;8.20;99.90;;;;;;4877367;29;20152;-68
2021/01/09 15:46:52;;;;;;;1.95;0.80;;;8.00;99.90;;;;;;4879753;29;20160;-67
2021/01/09 15:49:24;;;;;;;3.30;0.90;;;7.90;99.90;;;;;;4860182;29;20084;-68
2021/01/09 15:51:51;;;;;;;;;;;7.80;99.90;;;;;;4880695;29;20075;-68
2021/01/09 15:54:18;;;;;;;2.63;1.10;;;7.70;99.90;;;;;;4880166;29;20272;-68